Wilson Cadiz — 8PSY — position and weather

sailwx.info

Track history (hours):
 
Tides and Currents Weather Stations Pressure Air Temp Water Temp Dewpoint Dewpoint Depression Visibility Wind Speed Wind Dir Waves Ship Positions

Wilson Cadiz

Last reported at 2016-Sep-22 12:33 UTC. Time now 2016-Sep-26 10:33 UTC.
Position N 54°41' W 001°02'.

Length 100 m; draft 3.2 m.

Type: Ship. MMSI: 314216000.

Date/timePositionNaut miles runAvg speedWind from/ knotsBaromVisibWave heightAir tempDewpointWater temp
2016-Sep-22 12:33N 54°41' W 001°02'44 5.5
2016-Sep-22 04:33N 54°15' W 000°01'1313.2
2016-Sep-22 03:34N 54°04' E 000°10'29 9.6
2016-Sep-22 00:34N 53°35' E 000°02'1414.2
2016-Sep-21 23:33N 53°44' W 000°17'1110.3
2016-Sep-21 22:31N 53°43' W 000°36'  
2016-Sep-19 07:17N 53°43' W 000°36'5 7.4
2016-Sep-19 06:33N 53°42' W 000°27'25 8.2
2016-Sep-19 03:34N 53°33' E 000°12'6 5.5
2016-Sep-19 02:33N 53°33' E 000°21'12 5.9
2016-Sep-19 00:27N 53°36' E 000°42'15511.2
2016-Sep-18 10:32N 54°05' E 005°00'1111.3
2016-Sep-18 09:33N 54°06' E 005°19'8412.0
2016-Sep-18 02:33N 54°08' E 007°43'1312.9
2016-Sep-18 01:33N 54°02' E 008°02'1212.4
2016-Sep-18 00:33N 53°59' E 008°23'19 9.5
2016-Sep-17 22:33N 53°50' E 008°51'1010.5
2016-Sep-17 21:33N 53°53' E 009°08'5 4.6
2016-Sep-17 20:33N 53°57' E 009°14'39 5.6
2016-Sep-17 13:33N 54°22' E 010°05'2 1.9
2016-Sep-17 12:26N 54°22' E 010°08'14 6.3
2016-Sep-17 10:14N 54°32' E 010°25'812.5
2016-Sep-17 09:33N 54°35' E 010°39'1212.3
2016-Sep-17 08:33N 54°36' E 011°00'1313.3
2016-Sep-17 07:34N 54°32' E 011°22'2512.3
2016-Sep-17 05:33N 54°27' E 012°04'1212.0
2016-Sep-17 04:33N 54°34' E 012°20'79 7.2
2016-Sep-16 17:31N 53°54' E 014°16'0 0.0
2016-Sep-16 15:31N 53°54' E 014°16'0 0.0
2016-Sep-16 12:31N 53°54' E 014°16'0 0.0
2016-Sep-16 09:31N 53°54' E 014°16'0 0.0
2016-Sep-16 07:31N 53°54' E 014°16'0 0.0
2016-Sep-16 03:28N 53°54' E 014°16'0 0.0
2016-Sep-16 02:31N 53°54' E 014°16'0 0.0
2016-Sep-16 00:31N 53°54' E 014°16'0 0.0
2016-Sep-15 22:25N 53°54' E 014°16'0 0.0
2016-Sep-15 21:31N 53°54' E 014°16'0 0.0
2016-Sep-15 20:31N 53°54' E 014°16'0 0.0
2016-Sep-15 18:28N 53°54' E 014°16'1 0.2
2016-Sep-15 12:33N 53°55' E 014°17'9 9.4
2016-Sep-15 11:33N 54°03' E 014°24'9213.1
2016-Sep-15 04:32N 54°50' E 016°40'1313.3
2016-Sep-15 03:33N 54°52' E 017°03'2613.2
2016-Sep-15 01:33N 54°56' E 017°48'3912.9
2016-Sep-14 22:33N 54°49' E 018°54'1211.8
2016-Sep-14 21:33N 54°37' E 018°55'14 3.6
2016-Sep-14 17:32N 54°32' E 018°32'0 0.0
2016-Sep-14 16:32N 54°32' E 018°32'0 0.0
2016-Sep-14 13:32N 54°32' E 018°32'0 0.0
2016-Sep-14 12:32N 54°32' E 018°32'0 0.0
2016-Sep-14 10:32N 54°32' E 018°32'0 0.0
2016-Sep-14 09:32N 54°32' E 018°32'0 0.0
2016-Sep-14 08:32N 54°32' E 018°32'0 0.0
2016-Sep-14 07:32N 54°32' E 018°32'0 0.0
2016-Sep-14 06:32N 54°32' E 018°32'0 0.0
2016-Sep-14 03:32N 54°32' E 018°32'0 0.0
2016-Sep-13 22:32N 54°32' E 018°32'0 0.0
2016-Sep-13 20:32N 54°32' E 018°32'0 0.0
2016-Sep-13 18:29N 54°32' E 018°32'0 0.0
2016-Sep-13 17:32N 54°32' E 018°32'0 0.0
2016-Sep-13 16:32N 54°32' E 018°32'0 0.0
2016-Sep-13 11:32N 54°32' E 018°32'0 0.0
2016-Sep-13 09:29N 54°32' E 018°32'0 0.0
2016-Sep-13 07:32N 54°32' E 018°32'0 0.0
2016-Sep-13 06:29N 54°32' E 018°32'0 0.0
2016-Sep-13 04:32N 54°32' E 018°32'3 1.3
2016-Sep-13 02:33N 54°32' E 018°36'21 6.9
2016-Sep-12 23:33N 54°52' E 018°45'2510.3
2016-Sep-12 21:08N 54°55' E 018°02'1710.7
2016-Sep-12 19:33N 54°53' E 017°32'6610.5
2016-Sep-12 13:14N 54°49' E 015°37'  
Track history (hours):
 
Tides and Currents Weather Stations Pressure Air Temp Water Temp Dewpoint Dewpoint Depression Visibility Wind Speed Wind Dir Waves Ship Positions

Wilson Cadiz

Last reported at 2016-Sep-22 12:33 UTC. Time now 2016-Sep-26 10:33 UTC.
Position N 54°41' W 001°02'.

Length 100 m; draft 3.2 m.

Type: Ship. MMSI: 314216000.

Date/timePositionNaut miles runAvg speedWind from/ knotsBaromVisibWave heightAir tempDewpointWater temp
2016-Sep-22 12:33N 54°41' W 001°02'44 5.5
2016-Sep-22 04:33N 54°15' W 000°01'1313.2
2016-Sep-22 03:34N 54°04' E 000°10'29 9.6
2016-Sep-22 00:34N 53°35' E 000°02'1414.2
2016-Sep-21 23:33N 53°44' W 000°17'1110.3
2016-Sep-21 22:31N 53°43' W 000°36'  
2016-Sep-19 07:17N 53°43' W 000°36'5 7.4
2016-Sep-19 06:33N 53°42' W 000°27'25 8.2
2016-Sep-19 03:34N 53°33' E 000°12'6 5.5
2016-Sep-19 02:33N 53°33' E 000°21'12 5.9
2016-Sep-19 00:27N 53°36' E 000°42'15511.2
2016-Sep-18 10:32N 54°05' E 005°00'1111.3
2016-Sep-18 09:33N 54°06' E 005°19'8412.0
2016-Sep-18 02:33N 54°08' E 007°43'1312.9
2016-Sep-18 01:33N 54°02' E 008°02'1212.4
2016-Sep-18 00:33N 53°59' E 008°23'19 9.5
2016-Sep-17 22:33N 53°50' E 008°51'1010.5
2016-Sep-17 21:33N 53°53' E 009°08'5 4.6
2016-Sep-17 20:33N 53°57' E 009°14'39 5.6
2016-Sep-17 13:33N 54°22' E 010°05'2 1.9
2016-Sep-17 12:26N 54°22' E 010°08'14 6.3
2016-Sep-17 10:14N 54°32' E 010°25'812.5
2016-Sep-17 09:33N 54°35' E 010°39'1212.3
2016-Sep-17 08:33N 54°36' E 011°00'1313.3
2016-Sep-17 07:34N 54°32' E 011°22'2512.3
2016-Sep-17 05:33N 54°27' E 012°04'1212.0
2016-Sep-17 04:33N 54°34' E 012°20'79 7.2
2016-Sep-16 17:31N 53°54' E 014°16'0 0.0
2016-Sep-16 15:31N 53°54' E 014°16'0 0.0
2016-Sep-16 12:31N 53°54' E 014°16'0 0.0
2016-Sep-16 09:31N 53°54' E 014°16'0 0.0
2016-Sep-16 07:31N 53°54' E 014°16'0 0.0
2016-Sep-16 03:28N 53°54' E 014°16'0 0.0
2016-Sep-16 02:31N 53°54' E 014°16'0 0.0
2016-Sep-16 00:31N 53°54' E 014°16'0 0.0
2016-Sep-15 22:25N 53°54' E 014°16'0 0.0
2016-Sep-15 21:31N 53°54' E 014°16'0 0.0
2016-Sep-15 20:31N 53°54' E 014°16'0 0.0
2016-Sep-15 18:28N 53°54' E 014°16'1 0.2
2016-Sep-15 12:33N 53°55' E 014°17'9 9.4
2016-Sep-15 11:33N 54°03' E 014°24'9213.1
2016-Sep-15 04:32N 54°50' E 016°40'1313.3
2016-Sep-15 03:33N 54°52' E 017°03'2613.2
2016-Sep-15 01:33N 54°56' E 017°48'3912.9
2016-Sep-14 22:33N 54°49' E 018°54'1211.8
2016-Sep-14 21:33N 54°37' E 018°55'14 3.6
2016-Sep-14 17:32N 54°32' E 018°32'0 0.0
2016-Sep-14 16:32N 54°32' E 018°32'0 0.0
2016-Sep-14 13:32N 54°32' E 018°32'0 0.0
2016-Sep-14 12:32N 54°32' E 018°32'0 0.0
2016-Sep-14 10:32N 54°32' E 018°32'0 0.0
2016-Sep-14 09:32N 54°32' E 018°32'0 0.0
2016-Sep-14 08:32N 54°32' E 018°32'0 0.0
2016-Sep-14 07:32N 54°32' E 018°32'0 0.0
2016-Sep-14 06:32N 54°32' E 018°32'0 0.0
2016-Sep-14 03:32N 54°32' E 018°32'0 0.0
2016-Sep-13 22:32N 54°32' E 018°32'0 0.0
2016-Sep-13 20:32N 54°32' E 018°32'0 0.0
2016-Sep-13 18:29N 54°32' E 018°32'0 0.0
2016-Sep-13 17:32N 54°32' E 018°32'0 0.0
2016-Sep-13 16:32N 54°32' E 018°32'0 0.0
2016-Sep-13 11:32N 54°32' E 018°32'0 0.0
2016-Sep-13 09:29N 54°32' E 018°32'0 0.0
2016-Sep-13 07:32N 54°32' E 018°32'0 0.0
2016-Sep-13 06:29N 54°32' E 018°32'0 0.0
2016-Sep-13 04:32N 54°32' E 018°32'3 1.3
2016-Sep-13 02:33N 54°32' E 018°36'21 6.9
2016-Sep-12 23:33N 54°52' E 018°45'2510.3
2016-Sep-12 21:08N 54°55' E 018°02'1710.7
2016-Sep-12 19:33N 54°53' E 017°32'6610.5
2016-Sep-12 13:14N 54°49' E 015°37'  

Dump ship's entire track history